sensor_id;sensor_type;location;lat;lon;timestamp;P1;durP1;ratioP1;P2;durP2;ratioP2
18776;SDS011;9517;51.174;4.160;2023-04-05T00:01:56;31.57;;;16.57;;
18776;SDS011;9517;51.174;4.160;2023-04-05T00:04:24;30.00;;;16.60;;
18776;SDS011;9517;51.174;4.160;2023-04-05T00:06:52;31.17;;;17.00;;
18776;SDS011;9517;51.174;4.160;2023-04-05T00:09:21;31.33;;;17.33;;
18776;SDS011;9517;51.174;4.160;2023-04-05T00:11:48;33.43;;;17.30;;
18776;SDS011;9517;51.174;4.160;2023-04-05T00:14:17;32.07;;;16.83;;
18776;SDS011;9517;51.174;4.160;2023-04-05T00:16:44;32.83;;;16.53;;
18776;SDS011;9517;51.174;4.160;2023-04-05T00:19:11;31.00;;;16.97;;
18776;SDS011;9517;51.174;4.160;2023-04-05T00:21:39;29.83;;;16.93;;
18776;SDS011;9517;51.174;4.160;2023-04-05T00:24:06;30.10;;;16.20;;
18776;SDS011;9517;51.174;4.160;2023-04-05T00:26:39;35.60;;;17.60;;
18776;SDS011;9517;51.174;4.160;2023-04-05T00:29:08;32.93;;;15.83;;
18776;SDS011;9517;51.174;4.160;2023-04-05T00:31:36;30.50;;;17.63;;
18776;SDS011;9517;51.174;4.160;2023-04-05T00:34:03;30.50;;;16.83;;
18776;SDS011;9517;51.174;4.160;2023-04-05T00:36:33;33.50;;;17.47;;
18776;SDS011;9517;51.174;4.160;2023-04-05T00:39:01;32.30;;;17.57;;
18776;SDS011;9517;51.174;4.160;2023-04-05T00:41:28;31.63;;;16.37;;
18776;SDS011;9517;51.174;4.160;2023-04-05T00:43:55;28.87;;;16.03;;
18776;SDS011;9517;51.174;4.160;2023-04-05T00:46:24;30.90;;;16.83;;
18776;SDS011;9517;51.174;4.160;2023-04-05T00:48:53;33.70;;;17.17;;
18776;SDS011;9517;51.174;4.160;2023-04-05T00:51:20;30.97;;;17.10;;
18776;SDS011;9517;51.174;4.160;2023-04-05T00:53:48;29.37;;;16.87;;
18776;SDS011;9517;51.174;4.160;2023-04-05T00:56:17;34.03;;;17.87;;
18776;SDS011;9517;51.174;4.160;2023-04-05T00:58:46;30.27;;;16.87;;
18776;SDS011;9517;51.174;4.160;2023-04-05T01:01:16;30.97;;;16.47;;
18776;SDS011;9517;51.174;4.160;2023-04-05T01:03:48;30.63;;;16.93;;
18776;SDS011;9517;51.174;4.160;2023-04-05T01:06:21;29.57;;;16.40;;
18776;SDS011;9517;51.174;4.160;2023-04-05T01:09:22;28.80;;;16.53;;
18776;SDS011;9517;51.174;4.160;2023-04-05T01:11:56;31.10;;;17.13;;
18776;SDS011;9517;51.174;4.160;2023-04-05T01:14:24;29.43;;;16.60;;
18776;SDS011;9517;51.174;4.160;2023-04-05T01:16:51;35.93;;;17.50;;
18776;SDS011;9517;51.174;4.160;2023-04-05T01:19:22;32.40;;;17.30;;
18776;SDS011;9517;51.174;4.160;2023-04-05T01:22:04;31.23;;;16.93;;
18776;SDS011;9517;51.174;4.160;2023-04-05T01:24:58;34.53;;;16.80;;
18776;SDS011;9517;51.174;4.160;2023-04-05T01:27:42;28.50;;;16.27;;
18776;SDS011;9517;51.174;4.160;2023-04-05T01:30:23;31.00;;;16.57;;
18776;SDS011;9517;51.174;4.160;2023-04-05T01:32:59;32.83;;;17.73;;
18776;SDS011;9517;51.174;4.160;2023-04-05T01:35:36;31.40;;;16.47;;
18776;SDS011;9517;51.174;4.160;2023-04-05T01:38:09;30.20;;;16.10;;
18776;SDS011;9517;51.174;4.160;2023-04-05T01:40:39;32.63;;;15.90;;
18776;SDS011;9517;51.174;4.160;2023-04-05T01:43:11;28.90;;;16.50;;
18776;SDS011;9517;51.174;4.160;2023-04-05T01:45:40;33.53;;;17.43;;
18776;SDS011;9517;51.174;4.160;2023-04-05T01:48:07;33.07;;;16.70;;
18776;SDS011;9517;51.174;4.160;2023-04-05T01:50:34;31.73;;;16.70;;
18776;SDS011;9517;51.174;4.160;2023-04-05T01:53:01;35.87;;;17.23;;
18776;SDS011;9517;51.174;4.160;2023-04-05T01:55:28;33.27;;;17.07;;
18776;SDS011;9517;51.174;4.160;2023-04-05T01:57:56;30.67;;;16.73;;
18776;SDS011;9517;51.174;4.160;2023-04-05T02:00:23;28.67;;;16.50;;
18776;SDS011;9517;51.174;4.160;2023-04-05T02:02:53;28.97;;;17.37;;
18776;SDS011;9517;51.174;4.160;2023-04-05T02:05:20;30.10;;;16.90;;
18776;SDS011;9517;51.174;4.160;2023-04-05T02:07:47;34.60;;;17.47;;
18776;SDS011;9517;51.174;4.160;2023-04-05T02:10:14;31.63;;;16.63;;
18776;SDS011;9517;51.174;4.160;2023-04-05T02:12:41;30.50;;;17.10;;
18776;SDS011;9517;51.174;4.160;2023-04-05T02:15:09;30.83;;;16.70;;
18776;SDS011;9517;51.174;4.160;2023-04-05T02:17:36;31.10;;;16.47;;
18776;SDS011;9517;51.174;4.160;2023-04-05T02:20:06;30.97;;;17.17;;
18776;SDS011;9517;51.174;4.160;2023-04-05T02:22:36;32.23;;;17.10;;
18776;SDS011;9517;51.174;4.160;2023-04-05T02:25:04;33.40;;;17.00;;
18776;SDS011;9517;51.174;4.160;2023-04-05T02:27:32;36.93;;;17.17;;
18776;SDS011;9517;51.174;4.160;2023-04-05T02:30:00;38.23;;;16.80;;
18776;SDS011;9517;51.174;4.160;2023-04-05T02:32:27;35.63;;;17.30;;
18776;SDS011;9517;51.174;4.160;2023-04-05T02:34:56;33.03;;;16.63;;
18776;SDS011;9517;51.174;4.160;2023-04-05T02:37:24;35.03;;;17.90;;
18776;SDS011;9517;51.174;4.160;2023-04-05T02:39:51;29.77;;;17.77;;
18776;SDS011;9517;51.174;4.160;2023-04-05T02:42:18;32.77;;;17.70;;
18776;SDS011;9517;51.174;4.160;2023-04-05T02:44:45;29.43;;;16.73;;
18776;SDS011;9517;51.174;4.160;2023-04-05T02:47:12;32.33;;;18.47;;
18776;SDS011;9517;51.174;4.160;2023-04-05T02:49:45;32.73;;;17.23;;
18776;SDS011;9517;51.174;4.160;2023-04-05T02:52:13;32.00;;;17.47;;
18776;SDS011;9517;51.174;4.160;2023-04-05T02:54:41;32.40;;;17.90;;
18776;SDS011;9517;51.174;4.160;2023-04-05T02:57:10;33.60;;;18.03;;
18776;SDS011;9517;51.174;4.160;2023-04-05T02:59:37;37.80;;;18.37;;
18776;SDS011;9517;51.174;4.160;2023-04-05T03:02:05;32.47;;;16.87;;
18776;SDS011;9517;51.174;4.160;2023-04-05T03:04:32;34.07;;;17.80;;
18776;SDS011;9517;51.174;4.160;2023-04-05T03:07:01;34.13;;;17.50;;
18776;SDS011;9517;51.174;4.160;2023-04-05T03:09:28;33.37;;;16.70;;
18776;SDS011;9517;51.174;4.160;2023-04-05T03:11:59;31.60;;;17.27;;
18776;SDS011;9517;51.174;4.160;2023-04-05T03:14:27;32.63;;;17.67;;
18776;SDS011;9517;51.174;4.160;2023-04-05T03:16:55;32.17;;;18.03;;
18776;SDS011;9517;51.174;4.160;2023-04-05T03:19:22;32.73;;;18.43;;
18776;SDS011;9517;51.174;4.160;2023-04-05T03:21:50;36.40;;;17.70;;
18776;SDS011;9517;51.174;4.160;2023-04-05T03:24:18;29.70;;;16.77;;
18776;SDS011;9517;51.174;4.160;2023-04-05T03:26:46;35.50;;;17.77;;
18776;SDS011;9517;51.174;4.160;2023-04-05T03:29:14;35.30;;;17.80;;
18776;SDS011;9517;51.174;4.160;2023-04-05T03:31:43;38.40;;;18.53;;
18776;SDS011;9517;51.174;4.160;2023-04-05T03:34:10;33.20;;;18.00;;
18776;SDS011;9517;51.174;4.160;2023-04-05T03:36:37;29.57;;;17.67;;
18776;SDS011;9517;51.174;4.160;2023-04-05T03:39:07;35.00;;;19.07;;
18776;SDS011;9517;51.174;4.160;2023-04-05T03:41:35;32.50;;;18.53;;
18776;SDS011;9517;51.174;4.160;2023-04-05T03:44:02;35.30;;;18.30;;
18776;SDS011;9517;51.174;4.160;2023-04-05T03:46:31;34.60;;;17.17;;
18776;SDS011;9517;51.174;4.160;2023-04-05T03:48:58;32.53;;;18.10;;
18776;SDS011;9517;51.174;4.160;2023-04-05T03:51:26;38.27;;;18.93;;
18776;SDS011;9517;51.174;4.160;2023-04-05T03:53:53;34.53;;;18.33;;
18776;SDS011;9517;51.174;4.160;2023-04-05T03:56:20;36.37;;;18.10;;
18776;SDS011;9517;51.174;4.160;2023-04-05T03:58:47;32.80;;;18.00;;
18776;SDS011;9517;51.174;4.160;2023-04-05T04:01:14;32.93;;;18.10;;
18776;SDS011;9517;51.174;4.160;2023-04-05T04:03:43;30.67;;;18.00;;
18776;SDS011;9517;51.174;4.160;2023-04-05T04:06:11;32.60;;;16.97;;
18776;SDS011;9517;51.174;4.160;2023-04-05T04:08:38;38.67;;;20.20;;
18776;SDS011;9517;51.174;4.160;2023-04-05T04:11:05;39.20;;;20.30;;
18776;SDS011;9517;51.174;4.160;2023-04-05T04:13:32;35.70;;;19.03;;
18776;SDS011;9517;51.174;4.160;2023-04-05T04:15:59;35.27;;;19.90;;
18776;SDS011;9517;51.174;4.160;2023-04-05T04:18:26;34.43;;;19.67;;
18776;SDS011;9517;51.174;4.160;2023-04-05T04:20:54;36.40;;;19.63;;
18776;SDS011;9517;51.174;4.160;2023-04-05T04:23:22;34.57;;;19.03;;
18776;SDS011;9517;51.174;4.160;2023-04-05T04:25:51;33.23;;;19.57;;
18776;SDS011;9517;51.174;4.160;2023-04-05T04:28:18;32.87;;;19.37;;
18776;SDS011;9517;51.174;4.160;2023-04-05T04:30:49;39.60;;;19.33;;
18776;SDS011;9517;51.174;4.160;2023-04-05T04:33:16;39.40;;;19.13;;
18776;SDS011;9517;51.174;4.160;2023-04-05T04:35:44;37.63;;;20.00;;
18776;SDS011;9517;51.174;4.160;2023-04-05T04:38:13;37.17;;;19.80;;
18776;SDS011;9517;51.174;4.160;2023-04-05T04:40:43;42.20;;;20.40;;
18776;SDS011;9517;51.174;4.160;2023-04-05T04:43:12;35.67;;;18.37;;
18776;SDS011;9517;51.174;4.160;2023-04-05T04:45:42;35.43;;;19.17;;
18776;SDS011;9517;51.174;4.160;2023-04-05T04:48:11;39.43;;;19.13;;
18776;SDS011;9517;51.174;4.160;2023-04-05T04:50:38;37.13;;;19.20;;
18776;SDS011;9517;51.174;4.160;2023-04-05T04:53:05;39.57;;;20.83;;
18776;SDS011;9517;51.174;4.160;2023-04-05T04:55:34;45.67;;;21.37;;
18776;SDS011;9517;51.174;4.160;2023-04-05T04:58:01;37.23;;;19.97;;
18776;SDS011;9517;51.174;4.160;2023-04-05T05:00:33;38.80;;;20.13;;
18776;SDS011;9517;51.174;4.160;2023-04-05T05:03:01;43.13;;;20.33;;
18776;SDS011;9517;51.174;4.160;2023-04-05T05:05:28;40.27;;;19.43;;
18776;SDS011;9517;51.174;4.160;2023-04-05T05:07:55;40.50;;;20.10;;
18776;SDS011;9517;51.174;4.160;2023-04-05T05:10:22;47.27;;;22.27;;
18776;SDS011;9517;51.174;4.160;2023-04-05T05:12:51;37.83;;;19.43;;
18776;SDS011;9517;51.174;4.160;2023-04-05T05:15:18;41.80;;;20.60;;
18776;SDS011;9517;51.174;4.160;2023-04-05T05:17:45;39.23;;;21.50;;
18776;SDS011;9517;51.174;4.160;2023-04-05T05:20:17;39.83;;;20.57;;
18776;SDS011;9517;51.174;4.160;2023-04-05T05:22:44;36.97;;;19.83;;
18776;SDS011;9517;51.174;4.160;2023-04-05T05:25:11;41.67;;;22.07;;
18776;SDS011;9517;51.174;4.160;2023-04-05T05:27:38;42.10;;;21.07;;
18776;SDS011;9517;51.174;4.160;2023-04-05T05:30:08;42.50;;;22.53;;
18776;SDS011;9517;51.174;4.160;2023-04-05T05:32:35;40.57;;;21.23;;
18776;SDS011;9517;51.174;4.160;2023-04-05T05:35:03;46.97;;;21.50;;
18776;SDS011;9517;51.174;4.160;2023-04-05T05:37:32;39.07;;;21.17;;
18776;SDS011;9517;51.174;4.160;2023-04-05T05:39:59;40.53;;;21.17;;
18776;SDS011;9517;51.174;4.160;2023-04-05T05:42:29;49.80;;;22.80;;
18776;SDS011;9517;51.174;4.160;2023-04-05T05:45:01;40.50;;;22.70;;
18776;SDS011;9517;51.174;4.160;2023-04-05T05:47:30;55.63;;;22.67;;
18776;SDS011;9517;51.174;4.160;2023-04-05T05:49:57;38.53;;;20.90;;
18776;SDS011;9517;51.174;4.160;2023-04-05T05:52:24;42.97;;;21.27;;
18776;SDS011;9517;51.174;4.160;2023-04-05T05:54:51;40.93;;;20.80;;
18776;SDS011;9517;51.174;4.160;2023-04-05T05:57:18;42.30;;;20.73;;
18776;SDS011;9517;51.174;4.160;2023-04-05T05:59:45;39.87;;;22.27;;
18776;SDS011;9517;51.174;4.160;2023-04-05T06:02:12;47.27;;;26.77;;
18776;SDS011;9517;51.174;4.160;2023-04-05T06:04:41;48.07;;;24.73;;
18776;SDS011;9517;51.174;4.160;2023-04-05T06:07:09;44.50;;;22.27;;
18776;SDS011;9517;51.174;4.160;2023-04-05T06:09:36;43.30;;;23.43;;
18776;SDS011;9517;51.174;4.160;2023-04-05T06:12:03;42.57;;;23.17;;
18776;SDS011;9517;51.174;4.160;2023-04-05T06:14:31;42.07;;;23.37;;
18776;SDS011;9517;51.174;4.160;2023-04-05T06:16:58;52.90;;;23.83;;
18776;SDS011;9517;51.174;4.160;2023-04-05T06:19:25;52.10;;;24.40;;
18776;SDS011;9517;51.174;4.160;2023-04-05T06:21:53;47.70;;;25.63;;
18776;SDS011;9517;51.174;4.160;2023-04-05T06:24:20;52.93;;;27.67;;
18776;SDS011;9517;51.174;4.160;2023-04-05T06:26:48;62.63;;;28.80;;
18776;SDS011;9517;51.174;4.160;2023-04-05T06:29:16;53.53;;;27.50;;
18776;SDS011;9517;51.174;4.160;2023-04-05T06:31:43;52.27;;;25.70;;
18776;SDS011;9517;51.174;4.160;2023-04-05T06:34:12;51.03;;;26.23;;
18776;SDS011;9517;51.174;4.160;2023-04-05T06:36:39;51.57;;;25.37;;
18776;SDS011;9517;51.174;4.160;2023-04-05T06:39:08;52.77;;;24.53;;
18776;SDS011;9517;51.174;4.160;2023-04-05T06:41:35;49.73;;;24.50;;
18776;SDS011;9517;51.174;4.160;2023-04-05T06:44:02;48.63;;;23.60;;
18776;SDS011;9517;51.174;4.160;2023-04-05T06:46:29;53.53;;;24.50;;
18776;SDS011;9517;51.174;4.160;2023-04-05T06:48:57;53.13;;;23.97;;
18776;SDS011;9517;51.174;4.160;2023-04-05T06:51:24;55.77;;;23.20;;
18776;SDS011;9517;51.174;4.160;2023-04-05T06:53:52;42.63;;;23.77;;
18776;SDS011;9517;51.174;4.160;2023-04-05T06:56:21;44.33;;;22.50;;
18776;SDS011;9517;51.174;4.160;2023-04-05T06:58:48;41.33;;;22.80;;
18776;SDS011;9517;51.174;4.160;2023-04-05T07:01:16;40.60;;;21.67;;
18776;SDS011;9517;51.174;4.160;2023-04-05T07:03:43;34.87;;;18.00;;
18776;SDS011;9517;51.174;4.160;2023-04-05T07:06:10;33.23;;;17.47;;
18776;SDS011;9517;51.174;4.160;2023-04-05T07:08:37;31.60;;;16.80;;
18776;SDS011;9517;51.174;4.160;2023-04-05T07:11:04;30.03;;;15.27;;
18776;SDS011;9517;51.174;4.160;2023-04-05T07:13:33;34.30;;;16.27;;
18776;SDS011;9517;51.174;4.160;2023-04-05T07:16:01;31.17;;;16.03;;
18776;SDS011;9517;51.174;4.160;2023-04-05T07:18:28;29.97;;;15.13;;
18776;SDS011;9517;51.174;4.160;2023-04-05T07:20:56;28.97;;;15.57;;
18776;SDS011;9517;51.174;4.160;2023-04-05T07:23:27;32.60;;;15.37;;
18776;SDS011;9517;51.174;4.160;2023-04-05T07:25:59;33.10;;;16.17;;
18776;SDS011;9517;51.174;4.160;2023-04-05T07:28:28;27.27;;;13.97;;
18776;SDS011;9517;51.174;4.160;2023-04-05T07:30:57;29.30;;;15.13;;
18776;SDS011;9517;51.174;4.160;2023-04-05T07:33:24;31.57;;;14.67;;
18776;SDS011;9517;51.174;4.160;2023-04-05T07:35:51;28.97;;;15.40;;
18776;SDS011;9517;51.174;4.160;2023-04-05T07:38:20;28.77;;;15.00;;
18776;SDS011;9517;51.174;4.160;2023-04-05T07:40:48;30.57;;;15.13;;
18776;SDS011;9517;51.174;4.160;2023-04-05T07:43:15;26.27;;;13.57;;
18776;SDS011;9517;51.174;4.160;2023-04-05T07:45:43;30.70;;;14.83;;
18776;SDS011;9517;51.174;4.160;2023-04-05T07:48:12;29.90;;;14.90;;
18776;SDS011;9517;51.174;4.160;2023-04-05T07:50:39;27.60;;;14.47;;
18776;SDS011;9517;51.174;4.160;2023-04-05T07:53:11;29.83;;;13.80;;
18776;SDS011;9517;51.174;4.160;2023-04-05T07:55:38;28.40;;;13.60;;
18776;SDS011;9517;51.174;4.160;2023-04-05T07:58:06;26.27;;;12.83;;
18776;SDS011;9517;51.174;4.160;2023-04-05T08:00:33;34.40;;;12.80;;
18776;SDS011;9517;51.174;4.160;2023-04-05T08:03:01;23.80;;;12.60;;
18776;SDS011;9517;51.174;4.160;2023-04-05T08:05:29;22.07;;;11.77;;
18776;SDS011;9517;51.174;4.160;2023-04-05T08:07:57;23.80;;;11.77;;
18776;SDS011;9517;51.174;4.160;2023-04-05T08:10:24;23.73;;;12.53;;
18776;SDS011;9517;51.174;4.160;2023-04-05T08:12:51;23.93;;;12.47;;
18776;SDS011;9517;51.174;4.160;2023-04-05T08:15:18;22.73;;;11.20;;
18776;SDS011;9517;51.174;4.160;2023-04-05T08:17:45;27.67;;;11.80;;
18776;SDS011;9517;51.174;4.160;2023-04-05T08:20:12;23.37;;;11.70;;
18776;SDS011;9517;51.174;4.160;2023-04-05T08:22:41;20.60;;;10.80;;
18776;SDS011;9517;51.174;4.160;2023-04-05T08:25:08;24.57;;;11.47;;
18776;SDS011;9517;51.174;4.160;2023-04-05T08:27:35;25.77;;;12.17;;
18776;SDS011;9517;51.174;4.160;2023-04-05T08:30:02;22.87;;;10.43;;
18776;SDS011;9517;51.174;4.160;2023-04-05T08:32:32;21.70;;;10.33;;
18776;SDS011;9517;51.174;4.160;2023-04-05T08:34:59;19.23;;;9.27;;
18776;SDS011;9517;51.174;4.160;2023-04-05T08:37:26;19.53;;;9.43;;
18776;SDS011;9517;51.174;4.160;2023-04-05T08:39:55;21.20;;;9.60;;
18776;SDS011;9517;51.174;4.160;2023-04-05T08:42:23;20.30;;;9.63;;
18776;SDS011;9517;51.174;4.160;2023-04-05T08:44:55;23.70;;;10.90;;
18776;SDS011;9517;51.174;4.160;2023-04-05T08:47:25;27.60;;;11.20;;
18776;SDS011;9517;51.174;4.160;2023-04-05T08:49:53;26.10;;;11.83;;
18776;SDS011;9517;51.174;4.160;2023-04-05T08:52:20;27.90;;;13.17;;
18776;SDS011;9517;51.174;4.160;2023-04-05T08:54:47;23.63;;;12.60;;
18776;SDS011;9517;51.174;4.160;2023-04-05T08:57:16;29.00;;;13.00;;
18776;SDS011;9517;51.174;4.160;2023-04-05T08:59:47;27.73;;;13.07;;
18776;SDS011;9517;51.174;4.160;2023-04-05T09:02:16;30.27;;;14.03;;
18776;SDS011;9517;51.174;4.160;2023-04-05T09:04:45;27.43;;;12.80;;
18776;SDS011;9517;51.174;4.160;2023-04-05T09:07:13;29.30;;;13.67;;
18776;SDS011;9517;51.174;4.160;2023-04-05T09:09:41;28.20;;;12.73;;
18776;SDS011;9517;51.174;4.160;2023-04-05T09:12:12;25.70;;;12.43;;
18776;SDS011;9517;51.174;4.160;2023-04-05T09:14:41;29.80;;;12.27;;
18776;SDS011;9517;51.174;4.160;2023-04-05T09:17:09;24.40;;;13.23;;
18776;SDS011;9517;51.174;4.160;2023-04-05T09:19:37;26.23;;;13.43;;
18776;SDS011;9517;51.174;4.160;2023-04-05T09:22:04;26.13;;;13.27;;
18776;SDS011;9517;51.174;4.160;2023-04-05T09:24:33;28.47;;;13.13;;
18776;SDS011;9517;51.174;4.160;2023-04-05T09:27:05;24.43;;;12.60;;
18776;SDS011;9517;51.174;4.160;2023-04-05T09:29:33;24.57;;;12.40;;
18776;SDS011;9517;51.174;4.160;2023-04-05T09:32:03;24.03;;;12.60;;
18776;SDS011;9517;51.174;4.160;2023-04-05T09:34:31;24.20;;;12.47;;
18776;SDS011;9517;51.174;4.160;2023-04-05T09:37:01;24.67;;;11.77;;
18776;SDS011;9517;51.174;4.160;2023-04-05T09:39:36;25.03;;;13.83;;
18776;SDS011;9517;51.174;4.160;2023-04-05T09:42:04;27.20;;;12.97;;
18776;SDS011;9517;51.174;4.160;2023-04-05T09:44:52;21.63;;;11.70;;
18776;SDS011;9517;51.174;4.160;2023-04-05T09:47:23;27.03;;;12.97;;
18776;SDS011;9517;51.174;4.160;2023-04-05T09:49:55;26.53;;;13.17;;
18776;SDS011;9517;51.174;4.160;2023-04-05T09:52:23;28.80;;;12.73;;
18776;SDS011;9517;51.174;4.160;2023-04-05T09:54:51;22.57;;;12.47;;
18776;SDS011;9517;51.174;4.160;2023-04-05T09:57:20;23.33;;;12.10;;
18776;SDS011;9517;51.174;4.160;2023-04-05T09:59:50;25.93;;;12.27;;
18776;SDS011;9517;51.174;4.160;2023-04-05T10:02:17;23.17;;;13.07;;
18776;SDS011;9517;51.174;4.160;2023-04-05T10:04:46;27.83;;;12.97;;
18776;SDS011;9517;51.174;4.160;2023-04-05T10:07:14;25.43;;;12.20;;
18776;SDS011;9517;51.174;4.160;2023-04-05T10:09:43;26.63;;;12.97;;
18776;SDS011;9517;51.174;4.160;2023-04-05T10:12:12;24.23;;;12.37;;
18776;SDS011;9517;51.174;4.160;2023-04-05T10:14:46;25.60;;;12.80;;
18776;SDS011;9517;51.174;4.160;2023-04-05T10:17:15;24.87;;;12.30;;
18776;SDS011;9517;51.174;4.160;2023-04-05T10:19:59;25.17;;;12.80;;
18776;SDS011;9517;51.174;4.160;2023-04-05T10:22:35;27.90;;;12.13;;
18776;SDS011;9517;51.174;4.160;2023-04-05T10:25:08;21.70;;;12.00;;
18776;SDS011;9517;51.174;4.160;2023-04-05T10:27:43;21.93;;;12.50;;
18776;SDS011;9517;51.174;4.160;2023-04-05T10:30:14;26.67;;;13.13;;
18776;SDS011;9517;51.174;4.160;2023-04-05T10:35:37;23.47;;;12.47;;
18776;SDS011;9517;51.174;4.160;2023-04-05T10:38:16;24.33;;;13.43;;
18776;SDS011;9517;51.174;4.160;2023-04-05T10:40:48;25.70;;;13.63;;
18776;SDS011;9517;51.174;4.160;2023-04-05T10:43:19;27.03;;;13.00;;
18776;SDS011;9517;51.174;4.160;2023-04-05T10:45:50;25.53;;;14.03;;
18776;SDS011;9517;51.174;4.160;2023-04-05T10:48:20;25.40;;;12.90;;
18776;SDS011;9517;51.174;4.160;2023-04-05T10:51:07;26.67;;;13.60;;
18776;SDS011;9517;51.174;4.160;2023-04-05T10:53:35;21.17;;;13.03;;
18776;SDS011;9517;51.174;4.160;2023-04-05T10:56:03;22.93;;;13.07;;
18776;SDS011;9517;51.174;4.160;2023-04-05T10:58:31;23.90;;;13.53;;
18776;SDS011;9517;51.174;4.160;2023-04-05T11:00:59;24.57;;;14.37;;
18776;SDS011;9517;51.174;4.160;2023-04-05T11:03:40;23.60;;;13.60;;
18776;SDS011;9517;51.174;4.160;2023-04-05T11:06:23;24.60;;;14.17;;
18776;SDS011;9517;51.174;4.160;2023-04-05T11:08:57;23.70;;;13.87;;
18776;SDS011;9517;51.174;4.160;2023-04-05T11:11:26;21.73;;;13.03;;
18776;SDS011;9517;51.174;4.160;2023-04-05T11:13:53;25.43;;;14.37;;
18776;SDS011;9517;51.174;4.160;2023-04-05T11:16:22;24.73;;;13.73;;
18776;SDS011;9517;51.174;4.160;2023-04-05T11:19:03;24.77;;;12.80;;
18776;SDS011;9517;51.174;4.160;2023-04-05T11:21:32;26.73;;;14.53;;
18776;SDS011;9517;51.174;4.160;2023-04-05T11:24:00;24.63;;;13.53;;
18776;SDS011;9517;51.174;4.160;2023-04-05T11:26:31;25.57;;;13.97;;
18776;SDS011;9517;51.174;4.160;2023-04-05T11:28:59;23.60;;;14.03;;
18776;SDS011;9517;51.174;4.160;2023-04-05T11:31:26;24.73;;;13.80;;
18776;SDS011;9517;51.174;4.160;2023-04-05T11:33:53;22.63;;;13.83;;
18776;SDS011;9517;51.174;4.160;2023-04-05T11:36:37;23.93;;;12.93;;
18776;SDS011;9517;51.174;4.160;2023-04-05T11:41:58;21.67;;;13.10;;
18776;SDS011;9517;51.174;4.160;2023-04-05T11:44:27;24.43;;;14.33;;
18776;SDS011;9517;51.174;4.160;2023-04-05T11:46:55;27.33;;;14.67;;
18776;SDS011;9517;51.174;4.160;2023-04-05T11:49:22;26.70;;;14.10;;
18776;SDS011;9517;51.174;4.160;2023-04-05T11:51:52;24.57;;;13.53;;
18776;SDS011;9517;51.174;4.160;2023-04-05T11:54:29;23.37;;;13.53;;
18776;SDS011;9517;51.174;4.160;2023-04-05T11:56:57;20.43;;;12.40;;
18776;SDS011;9517;51.174;4.160;2023-04-05T11:59:28;22.07;;;14.33;;
18776;SDS011;9517;51.174;4.160;2023-04-05T12:02:02;24.30;;;13.80;;
18776;SDS011;9517;51.174;4.160;2023-04-05T12:04:32;21.80;;;13.93;;
18776;SDS011;9517;51.174;4.160;2023-04-05T12:07:14;21.97;;;13.20;;
18776;SDS011;9517;51.174;4.160;2023-04-05T12:09:57;22.83;;;13.57;;
18776;SDS011;9517;51.174;4.160;2023-04-05T12:12:26;26.33;;;14.23;;
18776;SDS011;9517;51.174;4.160;2023-04-05T12:14:57;23.30;;;13.77;;
18776;SDS011;9517;51.174;4.160;2023-04-05T12:17:41;22.00;;;13.40;;
18776;SDS011;9517;51.174;4.160;2023-04-05T12:20:09;23.37;;;13.60;;
18776;SDS011;9517;51.174;4.160;2023-04-05T12:22:40;20.87;;;12.60;;
18776;SDS011;9517;51.174;4.160;2023-04-05T12:25:08;23.73;;;14.30;;
18776;SDS011;9517;51.174;4.160;2023-04-05T12:27:36;24.83;;;14.57;;
18776;SDS011;9517;51.174;4.160;2023-04-05T12:30:07;24.70;;;14.07;;
18776;SDS011;9517;51.174;4.160;2023-04-05T12:32:36;24.33;;;14.67;;
18776;SDS011;9517;51.174;4.160;2023-04-05T12:35:09;25.90;;;13.70;;
18776;SDS011;9517;51.174;4.160;2023-04-05T12:37:37;21.60;;;12.87;;
18776;SDS011;9517;51.174;4.160;2023-04-05T12:40:07;22.20;;;13.17;;
18776;SDS011;9517;51.174;4.160;2023-04-05T12:42:35;22.90;;;13.53;;
18776;SDS011;9517;51.174;4.160;2023-04-05T12:45:03;22.77;;;12.77;;
18776;SDS011;9517;51.174;4.160;2023-04-05T12:47:32;20.45;;;13.73;;
18776;SDS011;9517;51.174;4.160;2023-04-05T12:50:09;19.42;;;12.82;;
18776;SDS011;9517;51.174;4.160;2023-04-05T12:52:37;27.57;;;13.67;;
18776;SDS011;9517;51.174;4.160;2023-04-05T12:55:16;22.60;;;13.00;;
18776;SDS011;9517;51.174;4.160;2023-04-05T12:57:47;22.53;;;13.43;;
18776;SDS011;9517;51.174;4.160;2023-04-05T13:00:16;21.73;;;12.97;;
18776;SDS011;9517;51.174;4.160;2023-04-05T13:02:47;24.00;;;13.17;;
18776;SDS011;9517;51.174;4.160;2023-04-05T13:05:17;22.97;;;13.60;;
18776;SDS011;9517;51.174;4.160;2023-04-05T13:07:46;20.53;;;12.10;;
18776;SDS011;9517;51.174;4.160;2023-04-05T13:10:13;21.63;;;13.17;;
18776;SDS011;9517;51.174;4.160;2023-04-05T13:12:41;22.20;;;12.57;;
18776;SDS011;9517;51.174;4.160;2023-04-05T13:15:08;22.80;;;12.70;;
18776;SDS011;9517;51.174;4.160;2023-04-05T13:17:36;21.27;;;13.73;;
18776;SDS011;9517;51.174;4.160;2023-04-05T13:20:03;22.47;;;13.60;;
18776;SDS011;9517;51.174;4.160;2023-04-05T13:22:31;22.37;;;13.17;;
18776;SDS011;9517;51.174;4.160;2023-04-05T13:25:00;21.43;;;12.63;;
18776;SDS011;9517;51.174;4.160;2023-04-05T13:27:27;25.07;;;12.80;;
18776;SDS011;9517;51.174;4.160;2023-04-05T13:29:54;21.63;;;12.93;;
18776;SDS011;9517;51.174;4.160;2023-04-05T13:32:21;22.10;;;12.80;;
18776;SDS011;9517;51.174;4.160;2023-04-05T13:34:48;22.43;;;12.77;;
18776;SDS011;9517;51.174;4.160;2023-04-05T13:37:15;21.80;;;12.20;;
18776;SDS011;9517;51.174;4.160;2023-04-05T13:39:42;21.63;;;12.57;;
18776;SDS011;9517;51.174;4.160;2023-04-05T13:42:11;24.37;;;12.47;;
18776;SDS011;9517;51.174;4.160;2023-04-05T13:44:38;22.97;;;13.23;;
18776;SDS011;9517;51.174;4.160;2023-04-05T13:47:05;23.97;;;12.33;;
18776;SDS011;9517;51.174;4.160;2023-04-05T13:49:32;21.20;;;12.37;;
18776;SDS011;9517;51.174;4.160;2023-04-05T13:51:59;24.03;;;12.57;;
18776;SDS011;9517;51.174;4.160;2023-04-05T13:54:26;19.77;;;12.10;;
18776;SDS011;9517;51.174;4.160;2023-04-05T13:56:53;21.27;;;12.63;;
18776;SDS011;9517;51.174;4.160;2023-04-05T13:59:24;23.87;;;12.67;;
18776;SDS011;9517;51.174;4.160;2023-04-05T14:01:52;22.30;;;11.83;;
18776;SDS011;9517;51.174;4.160;2023-04-05T14:04:19;22.63;;;12.40;;
18776;SDS011;9517;51.174;4.160;2023-04-05T14:06:46;21.23;;;11.67;;
18776;SDS011;9517;51.174;4.160;2023-04-05T14:09:13;21.17;;;12.03;;
18776;SDS011;9517;51.174;4.160;2023-04-05T14:11:40;22.30;;;12.27;;
18776;SDS011;9517;51.174;4.160;2023-04-05T14:14:07;18.97;;;11.53;;
18776;SDS011;9517;51.174;4.160;2023-04-05T14:16:36;23.83;;;13.50;;
18776;SDS011;9517;51.174;4.160;2023-04-05T14:19:03;22.87;;;12.13;;
18776;SDS011;9517;51.174;4.160;2023-04-05T14:21:30;18.70;;;11.23;;
18776;SDS011;9517;51.174;4.160;2023-04-05T14:23:57;20.17;;;11.70;;
18776;SDS011;9517;51.174;4.160;2023-04-05T14:26:25;25.47;;;12.07;;
18776;SDS011;9517;51.174;4.160;2023-04-05T14:28:52;23.93;;;11.57;;
18776;SDS011;9517;51.174;4.160;2023-04-05T14:31:21;24.57;;;12.13;;
18776;SDS011;9517;51.174;4.160;2023-04-05T14:33:51;21.23;;;12.07;;
18776;SDS011;9517;51.174;4.160;2023-04-05T14:36:18;20.67;;;11.60;;
18776;SDS011;9517;51.174;4.160;2023-04-05T14:38:45;22.43;;;12.97;;
18776;SDS011;9517;51.174;4.160;2023-04-05T14:41:13;21.23;;;12.07;;
18776;SDS011;9517;51.174;4.160;2023-04-05T14:43:40;21.70;;;12.73;;
18776;SDS011;9517;51.174;4.160;2023-04-05T14:46:07;25.90;;;13.67;;
18776;SDS011;9517;51.174;4.160;2023-04-05T14:48:34;24.37;;;12.43;;
18776;SDS011;9517;51.174;4.160;2023-04-05T14:51:03;23.73;;;12.30;;
18776;SDS011;9517;51.174;4.160;2023-04-05T14:53:30;23.10;;;13.03;;